sensor_id;sensor_type;location;lat;lon;timestamp;pressure;altitude;pressure_sealevel;temperature;humidity
69842;BME280;57138;51.326;-0.068;2024-01-15T00:01:54;99147.88;;;1.76;100.00
69842;BME280;57138;51.326;-0.068;2024-01-15T00:04:19;99155.47;;;1.79;100.00
69842;BME280;57138;51.326;-0.068;2024-01-15T00:06:45;99156.78;;;1.84;100.00
69842;BME280;57138;51.326;-0.068;2024-01-15T00:09:10;99055.41;;;1.19;100.00
69842;BME280;57138;51.326;-0.068;2024-01-15T00:11:36;99040.22;;;1.04;100.00
69842;BME280;57138;51.326;-0.068;2024-01-15T00:14:01;99147.16;;;1.66;100.00
69842;BME280;57138;51.326;-0.068;2024-01-15T00:16:28;99159.38;;;1.67;100.00
69842;BME280;57138;51.326;-0.068;2024-01-15T00:18:54;99152.09;;;1.61;100.00
69842;BME280;57138;51.326;-0.068;2024-01-15T00:21:19;99134.25;;;1.47;100.00
69842;BME280;57138;51.326;-0.068;2024-01-15T00:23:45;99155.09;;;1.40;100.00
69842;BME280;57138;51.326;-0.068;2024-01-15T00:26:11;99147.47;;;1.29;100.00
69842;BME280;57138;51.326;-0.068;2024-01-15T00:28:37;99106.69;;;1.06;100.00
69842;BME280;57138;51.326;-0.068;2024-01-15T00:31:04;99149.44;;;1.27;100.00
69842;BME280;57138;51.326;-0.068;2024-01-15T00:33:29;99127.69;;;0.98;100.00
69842;BME280;57138;51.326;-0.068;2024-01-15T00:35:55;99144.56;;;1.14;100.00
69842;BME280;57138;51.326;-0.068;2024-01-15T00:38:20;99133.31;;;1.03;100.00
69842;BME280;57138;51.326;-0.068;2024-01-15T00:40:46;99149.09;;;1.03;100.00
69842;BME280;57138;51.326;-0.068;2024-01-15T00:43:12;99147.44;;;1.02;100.00
69842;BME280;57138;51.326;-0.068;2024-01-15T00:45:37;99130.94;;;0.92;100.00
69842;BME280;57138;51.326;-0.068;2024-01-15T00:48:04;99136.50;;;0.89;100.00
69842;BME280;57138;51.326;-0.068;2024-01-15T00:50:29;99083.91;;;0.53;100.00
69842;BME280;57138;51.326;-0.068;2024-01-15T00:52:55;99131.47;;;0.78;100.00
69842;BME280;57138;51.326;-0.068;2024-01-15T00:55:20;99138.06;;;0.82;100.00
69842;BME280;57138;51.326;-0.068;2024-01-15T00:57:45;99130.50;;;0.79;100.00
69842;BME280;57138;51.326;-0.068;2024-01-15T01:00:11;99130.78;;;0.76;100.00
69842;BME280;57138;51.326;-0.068;2024-01-15T01:02:37;99132.06;;;0.71;100.00
69842;BME280;57138;51.326;-0.068;2024-01-15T01:05:03;99120.06;;;0.69;100.00
69842;BME280;57138;51.326;-0.068;2024-01-15T01:07:28;99080.41;;;0.44;100.00
69842;BME280;57138;51.326;-0.068;2024-01-15T01:09:55;99119.50;;;0.65;100.00
69842;BME280;57138;51.326;-0.068;2024-01-15T01:12:20;99128.72;;;0.61;100.00
69842;BME280;57138;51.326;-0.068;2024-01-15T01:14:46;99125.94;;;0.63;100.00
69842;BME280;57138;51.326;-0.068;2024-01-15T01:17:11;99118.44;;;0.50;100.00
69842;BME280;57138;51.326;-0.068;2024-01-15T01:19:37;99124.06;;;0.55;100.00
69842;BME280;57138;51.326;-0.068;2024-01-15T01:22:04;99118.72;;;0.47;100.00
69842;BME280;57138;51.326;-0.068;2024-01-15T01:24:29;99102.25;;;0.27;100.00
69842;BME280;57138;51.326;-0.068;2024-01-15T01:26:55;99092.94;;;0.14;100.00
69842;BME280;57138;51.326;-0.068;2024-01-15T01:29:20;99100.22;;;0.39;100.00
69842;BME280;57138;51.326;-0.068;2024-01-15T01:31:46;99107.28;;;0.38;100.00
69842;BME280;57138;51.326;-0.068;2024-01-15T01:34:15;99079.19;;;0.03;100.00
69842;BME280;57138;51.326;-0.068;2024-01-15T01:36:42;99098.78;;;0.26;100.00
69842;BME280;57138;51.326;-0.068;2024-01-15T01:39:07;99077.47;;;0.11;100.00
69842;BME280;57138;51.326;-0.068;2024-01-15T01:41:33;99105.88;;;0.26;100.00
69842;BME280;57138;51.326;-0.068;2024-01-15T01:43:58;99076.56;;;0.03;100.00
69842;BME280;57138;51.326;-0.068;2024-01-15T01:46:25;99095.72;;;0.13;100.00
69842;BME280;57138;51.326;-0.068;2024-01-15T01:48:52;99101.66;;;0.15;100.00
69842;BME280;57138;51.326;-0.068;2024-01-15T01:51:20;99091.72;;;0.09;100.00
69842;BME280;57138;51.326;-0.068;2024-01-15T01:53:47;99087.66;;;-0.04;100.00
69842;BME280;57138;51.326;-0.068;2024-01-15T01:56:14;99078.59;;;-0.09;100.00
69842;BME280;57138;51.326;-0.068;2024-01-15T01:58:39;99086.63;;;-0.11;100.00
69842;BME280;57138;51.326;-0.068;2024-01-15T02:01:06;99106.59;;;0.00;100.00
69842;BME280;57138;51.326;-0.068;2024-01-15T02:03:31;99082.91;;;-0.18;100.00
69842;BME280;57138;51.326;-0.068;2024-01-15T02:05:59;99115.59;;;-0.03;100.00
69842;BME280;57138;51.326;-0.068;2024-01-15T02:08:25;99104.72;;;-0.08;100.00
69842;BME280;57138;51.326;-0.068;2024-01-15T02:10:50;99110.63;;;-0.06;100.00
69842;BME280;57138;51.326;-0.068;2024-01-15T02:13:17;99108.59;;;-0.12;100.00
69842;BME280;57138;51.326;-0.068;2024-01-15T02:15:43;99115.53;;;-0.11;100.00
69842;BME280;57138;51.326;-0.068;2024-01-15T02:18:09;99107.72;;;-0.30;100.00
69842;BME280;57138;51.326;-0.068;2024-01-15T02:20:36;99112.41;;;-0.24;100.00
69842;BME280;57138;51.326;-0.068;2024-01-15T02:23:11;99112.31;;;-0.32;100.00
69842;BME280;57138;51.326;-0.068;2024-01-15T02:25:38;99114.66;;;-0.29;100.00
69842;BME280;57138;51.326;-0.068;2024-01-15T02:28:05;99117.72;;;-0.34;100.00
69842;BME280;57138;51.326;-0.068;2024-01-15T02:30:31;99123.47;;;-0.30;100.00
69842;BME280;57138;51.326;-0.068;2024-01-15T02:32:57;99120.72;;;-0.29;100.00
69842;BME280;57138;51.326;-0.068;2024-01-15T02:35:22;99115.38;;;-0.37;100.00
69842;BME280;57138;51.326;-0.068;2024-01-15T02:37:47;99105.00;;;-0.39;100.00
69842;BME280;57138;51.326;-0.068;2024-01-15T02:40:14;99111.91;;;-0.38;100.00
69842;BME280;57138;51.326;-0.068;2024-01-15T02:42:39;99107.06;;;-0.42;100.00
69842;BME280;57138;51.326;-0.068;2024-01-15T02:45:05;99115.81;;;-0.51;100.00
69842;BME280;57138;51.326;-0.068;2024-01-15T02:47:32;99107.28;;;-0.53;100.00
69842;BME280;57138;51.326;-0.068;2024-01-15T02:49:57;99106.84;;;-0.49;100.00
69842;BME280;57138;51.326;-0.068;2024-01-15T02:52:23;99077.22;;;-0.69;100.00
69842;BME280;57138;51.326;-0.068;2024-01-15T02:54:48;99090.03;;;-0.56;100.00
69842;BME280;57138;51.326;-0.068;2024-01-15T02:57:14;99105.78;;;-0.56;100.00
69842;BME280;57138;51.326;-0.068;2024-01-15T02:59:39;99099.53;;;-0.55;100.00
69842;BME280;57138;51.326;-0.068;2024-01-15T03:02:04;99088.66;;;-0.60;100.00
69842;BME280;57138;51.326;-0.068;2024-01-15T03:04:30;99077.19;;;-0.59;100.00
69842;BME280;57138;51.326;-0.068;2024-01-15T03:06:55;99068.22;;;-0.66;100.00
69842;BME280;57138;51.326;-0.068;2024-01-15T03:09:22;99042.19;;;-0.87;100.00
69842;BME280;57138;51.326;-0.068;2024-01-15T03:11:48;99092.09;;;-0.60;100.00
69842;BME280;57138;51.326;-0.068;2024-01-15T03:16:49;99084.78;;;-0.66;100.00
69842;BME280;57138;51.326;-0.068;2024-01-15T03:19:14;99089.09;;;-0.65;100.00
69842;BME280;57138;51.326;-0.068;2024-01-15T03:21:40;99039.38;;;-1.04;100.00
69842;BME280;57138;51.326;-0.068;2024-01-15T03:24:26;99094.53;;;-0.76;100.00
69842;BME280;57138;51.326;-0.068;2024-01-15T03:26:51;98984.94;;;-1.39;100.00
69842;BME280;57138;51.326;-0.068;2024-01-15T03:29:17;99078.13;;;-0.88;100.00
69842;BME280;57138;51.326;-0.068;2024-01-15T03:31:42;99030.72;;;-1.24;100.00
69842;BME280;57138;51.326;-0.068;2024-01-15T03:34:08;98979.03;;;-1.51;100.00
69842;BME280;57138;51.326;-0.068;2024-01-15T03:36:34;99076.72;;;-0.92;100.00
69842;BME280;57138;51.326;-0.068;2024-01-15T03:38:59;99067.38;;;-0.95;100.00
69842;BME280;57138;51.326;-0.068;2024-01-15T03:41:24;99089.56;;;-0.89;100.00
69842;BME280;57138;51.326;-0.068;2024-01-15T03:43:50;99089.19;;;-0.94;100.00
69842;BME280;57138;51.326;-0.068;2024-01-15T03:46:15;99089.03;;;-0.93;100.00
69842;BME280;57138;51.326;-0.068;2024-01-15T03:48:41;99032.09;;;-1.30;100.00
69842;BME280;57138;51.326;-0.068;2024-01-15T03:51:06;99095.81;;;-0.90;100.00
69842;BME280;57138;51.326;-0.068;2024-01-15T03:53:32;98996.28;;;-1.49;100.00
69842;BME280;57138;51.326;-0.068;2024-01-15T03:55:57;99088.59;;;-0.88;100.00
69842;BME280;57138;51.326;-0.068;2024-01-15T03:58:22;99095.38;;;-0.95;100.00
69842;BME280;57138;51.326;-0.068;2024-01-15T04:00:48;99083.53;;;-0.99;100.00
69842;BME280;57138;51.326;-0.068;2024-01-15T04:03:13;99092.22;;;-0.99;100.00
69842;BME280;57138;51.326;-0.068;2024-01-15T04:05:39;99074.56;;;-1.06;100.00
69842;BME280;57138;51.326;-0.068;2024-01-15T04:08:04;99071.84;;;-1.15;100.00
69842;BME280;57138;51.326;-0.068;2024-01-15T04:10:30;99073.50;;;-1.14;100.00
69842;BME280;57138;51.326;-0.068;2024-01-15T04:12:55;99028.28;;;-1.45;100.00
69842;BME280;57138;51.326;-0.068;2024-01-15T04:15:21;99075.97;;;-1.12;100.00
69842;BME280;57138;51.326;-0.068;2024-01-15T04:17:46;99068.41;;;-1.15;100.00
69842;BME280;57138;51.326;-0.068;2024-01-15T04:20:12;99068.25;;;-1.14;100.00
69842;BME280;57138;51.326;-0.068;2024-01-15T04:22:37;99057.91;;;-1.25;100.00
69842;BME280;57138;51.326;-0.068;2024-01-15T04:25:03;99076.53;;;-1.09;100.00
69842;BME280;57138;51.326;-0.068;2024-01-15T04:27:29;99072.50;;;-1.13;100.00
69842;BME280;57138;51.326;-0.068;2024-01-15T04:29:54;99076.13;;;-1.14;100.00
69842;BME280;57138;51.326;-0.068;2024-01-15T04:32:20;99040.69;;;-1.37;100.00
69842;BME280;57138;51.326;-0.068;2024-01-15T04:34:45;99074.34;;;-1.23;100.00
69842;BME280;57138;51.326;-0.068;2024-01-15T04:37:13;99063.56;;;-1.20;100.00
69842;BME280;57138;51.326;-0.068;2024-01-15T04:39:38;99057.78;;;-1.33;100.00
69842;BME280;57138;51.326;-0.068;2024-01-15T04:42:04;99063.84;;;-1.23;100.00
69842;BME280;57138;51.326;-0.068;2024-01-15T04:44:30;99065.25;;;-1.29;100.00
69842;BME280;57138;51.326;-0.068;2024-01-15T04:46:55;99040.56;;;-1.46;100.00
69842;BME280;57138;51.326;-0.068;2024-01-15T04:49:20;99055.72;;;-1.30;100.00
69842;BME280;57138;51.326;-0.068;2024-01-15T04:51:46;99050.31;;;-1.28;100.00
69842;BME280;57138;51.326;-0.068;2024-01-15T04:54:12;99041.53;;;-1.37;100.00
69842;BME280;57138;51.326;-0.068;2024-01-15T04:56:37;99049.81;;;-1.41;100.00
69842;BME280;57138;51.326;-0.068;2024-01-15T04:59:04;99024.44;;;-1.51;100.00
69842;BME280;57138;51.326;-0.068;2024-01-15T05:01:31;99047.19;;;-1.41;100.00
69842;BME280;57138;51.326;-0.068;2024-01-15T05:03:57;99023.31;;;-1.58;100.00
69842;BME280;57138;51.326;-0.068;2024-01-15T05:06:23;99053.66;;;-1.46;100.00
69842;BME280;57138;51.326;-0.068;2024-01-15T05:08:48;99040.31;;;-1.52;100.00
69842;BME280;57138;51.326;-0.068;2024-01-15T05:11:14;99038.38;;;-1.60;100.00
69842;BME280;57138;51.326;-0.068;2024-01-15T05:13:40;99012.19;;;-1.70;100.00
69842;BME280;57138;51.326;-0.068;2024-01-15T05:16:05;99001.28;;;-1.85;100.00
69842;BME280;57138;51.326;-0.068;2024-01-15T05:18:31;99047.91;;;-1.59;100.00
69842;BME280;57138;51.326;-0.068;2024-01-15T05:20:56;99058.50;;;-1.51;100.00
69842;BME280;57138;51.326;-0.068;2024-01-15T05:23:22;99061.53;;;-1.46;100.00
69842;BME280;57138;51.326;-0.068;2024-01-15T05:25:47;99059.44;;;-1.42;100.00
69842;BME280;57138;51.326;-0.068;2024-01-15T05:28:13;99041.13;;;-1.61;100.00
69842;BME280;57138;51.326;-0.068;2024-01-15T05:30:39;99057.81;;;-1.43;100.00
69842;BME280;57138;51.326;-0.068;2024-01-15T05:33:04;99019.47;;;-1.73;100.00
69842;BME280;57138;51.326;-0.068;2024-01-15T05:35:30;99009.84;;;-1.73;100.00
69842;BME280;57138;51.326;-0.068;2024-01-15T05:37:55;99055.34;;;-1.45;100.00
69842;BME280;57138;51.326;-0.068;2024-01-15T05:40:21;99053.66;;;-1.46;100.00
69842;BME280;57138;51.326;-0.068;2024-01-15T05:42:46;99045.69;;;-1.54;100.00
69842;BME280;57138;51.326;-0.068;2024-01-15T05:45:12;99044.69;;;-1.53;100.00
69842;BME280;57138;51.326;-0.068;2024-01-15T05:47:37;99029.13;;;-1.64;100.00
69842;BME280;57138;51.326;-0.068;2024-01-15T05:50:03;99049.25;;;-1.55;100.00
69842;BME280;57138;51.326;-0.068;2024-01-15T05:52:28;99039.34;;;-1.61;100.00
69842;BME280;57138;51.326;-0.068;2024-01-15T05:54:54;99012.59;;;-1.74;100.00
69842;BME280;57138;51.326;-0.068;2024-01-15T05:57:19;99036.19;;;-1.65;100.00
69842;BME280;57138;51.326;-0.068;2024-01-15T05:59:45;99031.75;;;-1.64;100.00
69842;BME280;57138;51.326;-0.068;2024-01-15T06:02:11;98993.31;;;-1.93;100.00
69842;BME280;57138;51.326;-0.068;2024-01-15T06:04:36;99046.25;;;-1.60;100.00
69842;BME280;57138;51.326;-0.068;2024-01-15T06:07:02;99054.25;;;-1.61;100.00
69842;BME280;57138;51.326;-0.068;2024-01-15T06:09:28;99065.81;;;-1.64;100.00
69842;BME280;57138;51.326;-0.068;2024-01-15T06:11:54;99067.50;;;-1.63;100.00
69842;BME280;57138;51.326;-0.068;2024-01-15T06:14:19;99047.09;;;-1.79;100.00
69842;BME280;57138;51.326;-0.068;2024-01-15T06:16:46;99044.88;;;-1.84;100.00
69842;BME280;57138;51.326;-0.068;2024-01-15T06:19:11;99013.44;;;-2.03;100.00
69842;BME280;57138;51.326;-0.068;2024-01-15T06:21:37;99056.72;;;-1.79;100.00
69842;BME280;57138;51.326;-0.068;2024-01-15T06:24:02;99058.66;;;-1.82;100.00
69842;BME280;57138;51.326;-0.068;2024-01-15T06:26:28;99077.53;;;-1.78;100.00
69842;BME280;57138;51.326;-0.068;2024-01-15T06:28:53;99047.78;;;-1.87;100.00
69842;BME280;57138;51.326;-0.068;2024-01-15T06:31:19;99066.38;;;-1.80;100.00
69842;BME280;57138;51.326;-0.068;2024-01-15T06:33:45;99078.22;;;-1.86;100.00
69842;BME280;57138;51.326;-0.068;2024-01-15T06:36:14;99095.63;;;-1.75;100.00
69842;BME280;57138;51.326;-0.068;2024-01-15T06:38:42;99089.56;;;-1.75;100.00
69842;BME280;57138;51.326;-0.068;2024-01-15T06:41:08;99103.63;;;-1.76;100.00
69842;BME280;57138;51.326;-0.068;2024-01-15T06:43:33;99058.91;;;-2.04;100.00
69842;BME280;57138;51.326;-0.068;2024-01-15T06:45:59;99101.53;;;-1.83;100.00
69842;BME280;57138;51.326;-0.068;2024-01-15T06:48:24;99075.59;;;-2.05;100.00
69842;BME280;57138;51.326;-0.068;2024-01-15T06:50:50;99114.63;;;-1.83;100.00
69842;BME280;57138;51.326;-0.068;2024-01-15T06:53:15;99092.59;;;-1.90;100.00
69842;BME280;57138;51.326;-0.068;2024-01-15T06:55:41;99112.28;;;-1.86;100.00
69842;BME280;57138;51.326;-0.068;2024-01-15T06:58:06;99081.53;;;-2.03;100.00
69842;BME280;57138;51.326;-0.068;2024-01-15T07:00:32;99061.38;;;-2.12;100.00
69842;BME280;57138;51.326;-0.068;2024-01-15T07:02:57;99102.94;;;-1.88;100.00
69842;BME280;57138;51.326;-0.068;2024-01-15T07:05:23;99053.94;;;-2.17;100.00
69842;BME280;57138;51.326;-0.068;2024-01-15T07:07:49;99092.00;;;-1.93;100.00
69842;BME280;57138;51.326;-0.068;2024-01-15T07:10:15;99091.72;;;-2.00;100.00
69842;BME280;57138;51.326;-0.068;2024-01-15T07:12:44;99103.75;;;-1.97;100.00
69842;BME280;57138;51.326;-0.068;2024-01-15T07:15:11;99101.41;;;-2.01;100.00
69842;BME280;57138;51.326;-0.068;2024-01-15T07:17:37;99110.75;;;-1.98;100.00
69842;BME280;57138;51.326;-0.068;2024-01-15T07:20:08;99103.28;;;-2.03;100.00
69842;BME280;57138;51.326;-0.068;2024-01-15T07:22:35;99096.84;;;-2.08;100.00
69842;BME280;57138;51.326;-0.068;2024-01-15T07:25:02;99105.91;;;-2.03;100.00
69842;BME280;57138;51.326;-0.068;2024-01-15T07:27:38;99002.72;;;-2.70;100.00
69842;BME280;57138;51.326;-0.068;2024-01-15T07:30:20;99104.56;;;-2.07;100.00
69842;BME280;57138;51.326;-0.068;2024-01-15T07:33:18;99111.56;;;-2.07;100.00
69842;BME280;57138;51.326;-0.068;2024-01-15T07:35:47;99111.56;;;-2.07;100.00
69842;BME280;57138;51.326;-0.068;2024-01-15T07:38:15;99116.13;;;-2.09;100.00
69842;BME280;57138;51.326;-0.068;2024-01-15T07:40:41;99113.63;;;-2.11;100.00
69842;BME280;57138;51.326;-0.068;2024-01-15T07:43:11;99112.94;;;-2.13;100.00
69842;BME280;57138;51.326;-0.068;2024-01-15T07:45:36;99122.59;;;-2.13;100.00
69842;BME280;57138;51.326;-0.068;2024-01-15T07:48:03;99114.31;;;-2.19;100.00
69842;BME280;57138;51.326;-0.068;2024-01-15T07:50:29;99062.44;;;-2.35;100.00
69842;BME280;57138;51.326;-0.068;2024-01-15T07:53:01;99011.31;;;-2.48;100.00
69842;BME280;57138;51.326;-0.068;2024-01-15T07:55:30;99014.78;;;-2.38;100.00
69842;BME280;57138;51.326;-0.068;2024-01-15T07:58:01;99137.56;;;-1.65;100.00
69842;BME280;57138;51.326;-0.068;2024-01-15T08:00:28;99059.75;;;-2.13;100.00
69842;BME280;57138;51.326;-0.068;2024-01-15T08:02:53;99131.22;;;-1.72;100.00
69842;BME280;57138;51.326;-0.068;2024-01-15T08:05:19;99058.03;;;-2.34;100.00
69842;BME280;57138;51.326;-0.068;2024-01-15T08:07:46;99102.19;;;-2.20;100.00
69842;BME280;57138;51.326;-0.068;2024-01-15T08:10:12;99103.81;;;-2.19;100.00
69842;BME280;57138;51.326;-0.068;2024-01-15T08:12:39;99026.25;;;-2.70;100.00
69842;BME280;57138;51.326;-0.068;2024-01-15T08:15:06;99028.47;;;-2.75;100.00
69842;BME280;57138;51.326;-0.068;2024-01-15T08:17:31;99081.97;;;-2.48;100.00
69842;BME280;57138;51.326;-0.068;2024-01-15T08:19:57;99023.34;;;-2.86;100.00
69842;BME280;57138;51.326;-0.068;2024-01-15T08:22:24;99098.81;;;-2.41;100.00
69842;BME280;57138;51.326;-0.068;2024-01-15T08:24:51;99087.91;;;-2.46;100.00
69842;BME280;57138;51.326;-0.068;2024-01-15T08:27:17;99098.56;;;-2.38;100.00
69842;BME280;57138;51.326;-0.068;2024-01-15T08:29:43;99040.84;;;-2.77;100.00
69842;BME280;57138;51.326;-0.068;2024-01-15T08:32:08;99028.09;;;-2.92;100.00
69842;BME280;57138;51.326;-0.068;2024-01-15T08:34:45;99024.28;;;-2.87;100.00
69842;BME280;57138;51.326;-0.068;2024-01-15T08:37:14;99057.41;;;-2.67;100.00
69842;BME280;57138;51.326;-0.068;2024-01-15T08:39:43;99006.06;;;-2.99;100.00
69842;BME280;57138;51.326;-0.068;2024-01-15T08:42:08;99108.56;;;-2.43;100.00
69842;BME280;57138;51.326;-0.068;2024-01-15T08:44:34;99038.31;;;-2.89;100.00
69842;BME280;57138;51.326;-0.068;2024-01-15T08:47:00;99053.75;;;-2.85;100.00
69842;BME280;57138;51.326;-0.068;2024-01-15T08:49:31;99056.81;;;-2.80;100.00
69842;BME280;57138;51.326;-0.068;2024-01-15T08:51:59;99169.88;;;-2.15;100.00
69842;BME280;57138;51.326;-0.068;2024-01-15T08:54:25;99162.56;;;-2.11;100.00
69842;BME280;57138;51.326;-0.068;2024-01-15T08:56:51;99108.84;;;-2.46;100.00
69842;BME280;57138;51.326;-0.068;2024-01-15T08:59:18;99171.81;;;-2.07;100.00
69842;BME280;57138;51.326;-0.068;2024-01-15T09:01:50;99150.13;;;-2.29;100.00
69842;BME280;57138;51.326;-0.068;2024-01-15T09:04:16;99187.69;;;-1.99;100.00
69842;BME280;57138;51.326;-0.068;2024-01-15T09:06:47;99190.31;;;-1.99;100.00
69842;BME280;57138;51.326;-0.068;2024-01-15T09:09:13;99186.44;;;-1.95;100.00
69842;BME280;57138;51.326;-0.068;2024-01-15T09:11:42;99071.72;;;-2.71;100.00
69842;BME280;57138;51.326;-0.068;2024-01-15T09:14:11;99059.59;;;-2.72;100.00
69842;BME280;57138;51.326;-0.068;2024-01-15T09:16:38;99195.19;;;-1.85;100.00
69842;BME280;57138;51.326;-0.068;2024-01-15T09:19:04;99156.28;;;-1.99;100.00
69842;BME280;57138;51.326;-0.068;2024-01-15T09:21:29;99182.50;;;-1.79;100.00
69842;BME280;57138;51.326;-0.068;2024-01-15T09:23:54;99113.47;;;-2.19;100.00
69842;BME280;57138;51.326;-0.068;2024-01-15T09:26:20;99171.19;;;-1.80;100.00
69842;BME280;57138;51.326;-0.068;2024-01-15T09:28:46;99161.66;;;-1.91;100.00
69842;BME280;57138;51.326;-0.068;2024-01-15T09:31:11;99162.91;;;-1.85;100.00
69842;BME280;57138;51.326;-0.068;2024-01-15T09:33:37;99185.13;;;-1.79;100.00
69842;BME280;57138;51.326;-0.068;2024-01-15T09:36:03;99185.69;;;-1.66;100.00
69842;BME280;57138;51.326;-0.068;2024-01-15T09:38:32;99197.47;;;-1.51;100.00
69842;BME280;57138;51.326;-0.068;2024-01-15T09:40:58;99185.84;;;-1.58;100.00
69842;BME280;57138;51.326;-0.068;2024-01-15T09:43:24;99180.75;;;-1.59;100.00
69842;BME280;57138;51.326;-0.068;2024-01-15T09:45:53;99079.16;;;-2.16;100.00
69842;BME280;57138;51.326;-0.068;2024-01-15T09:48:20;99210.56;;;-1.31;100.00
69842;BME280;57138;51.326;-0.068;2024-01-15T09:50:46;99140.03;;;-1.73;100.00
69842;BME280;57138;51.326;-0.068;2024-01-15T09:53:14;99216.53;;;-1.29;100.00
69842;BME280;57138;51.326;-0.068;2024-01-15T09:55:41;99221.50;;;-1.26;100.00
69842;BME280;57138;51.326;-0.068;2024-01-15T09:58:07;99204.91;;;-1.36;100.00
69842;BME280;57138;51.326;-0.068;2024-01-15T10:00:34;99163.78;;;-1.65;100.00
69842;BME280;57138;51.326;-0.068;2024-01-15T10:03:07;99136.44;;;-1.82;100.00
69842;BME280;57138;51.326;-0.068;2024-01-15T10:05:35;99136.19;;;-1.69;100.00
69842;BME280;57138;51.326;-0.068;2024-01-15T10:08:02;99144.19;;;-1.61;100.00
69842;BME280;57138;51.326;-0.068;2024-01-15T10:10:29;99199.13;;;-1.30;100.00
69842;BME280;57138;51.326;-0.068;2024-01-15T10:12:55;99193.88;;;-1.30;100.00
69842;BME280;57138;51.326;-0.068;2024-01-15T10:15:25;99219.56;;;-1.14;100.00
69842;BME280;57138;51.326;-0.068;2024-01-15T10:17:51;99223.97;;;-1.05;100.00
69842;BME280;57138;51.326;-0.068;2024-01-15T10:20:17;99231.28;;;-0.99;100.00
69842;BME280;57138;51.326;-0.068;2024-01-15T10:22:42;99226.72;;;-0.97;100.00
69842;BME280;57138;51.326;-0.068;2024-01-15T10:25:14;99223.41;;;-0.99;100.00
69842;BME280;57138;51.326;-0.068;2024-01-15T10:27:41;99234.44;;;-0.95;100.00
69842;BME280;57138;51.326;-0.068;2024-01-15T10:30:10;99235.31;;;-0.95;100.00
69842;BME280;57138;51.326;-0.068;2024-01-15T10:32:36;99235.84;;;-0.91;100.00
69842;BME280;57138;51.326;-0.068;2024-01-15T10:35:07;99249.09;;;-0.83;100.00
69842;BME280;57138;51.326;-0.068;2024-01-15T10:37:34;99251.03;;;-0.85;100.00
69842;BME280;57138;51.326;-0.068;2024-01-15T10:40:03;99262.94;;;-0.81;100.00
69842;BME280;57138;51.326;-0.068;2024-01-15T10:42:32;99268.28;;;-0.73;100.00
69842;BME280;57138;51.326;-0.068;2024-01-15T10:44:57;99263.16;;;-0.64;100.00
69842;BME280;57138;51.326;-0.068;2024-01-15T10:47:23;99258.34;;;-0.59;100.00
69842;BME280;57138;51.326;-0.068;2024-01-15T10:49:49;99236.13;;;-0.75;100.00
69842;BME280;57138;51.326;-0.068;2024-01-15T10:52:15;99265.66;;;-0.53;100.00
69842;BME280;57138;51.326;-0.068;2024-01-15T10:54:41;99252.38;;;-0.61;100.00
69842;BME280;57138;51.326;-0.068;2024-01-15T10:57:08;99239.25;;;-0.61;100.00
69842;BME280;57138;51.326;-0.068;2024-01-15T10:59:36;99243.56;;;-0.60;100.00
69842;BME280;57138;51.326;-0.068;2024-01-15T11:02:01;99248.50;;;-0.47;100.00
69842;BME280;57138;51.326;-0.068;2024-01-15T11:04:27;99239.91;;;-0.40;100.00
69842;BME280;57138;51.326;-0.068;2024-01-15T11:06:54;99239.63;;;-0.37;100.00
69842;BME280;57138;51.326;-0.068;2024-01-15T11:09:21;99245.97;;;-0.29;100.00
69842;BME280;57138;51.326;-0.068;2024-01-15T11:11:47;99245.97;;;-0.29;100.00
69842;BME280;57138;51.326;-0.068;2024-01-15T11:14:37;99246.78;;;-0.29;100.00
69842;BME280;57138;51.326;-0.068;2024-01-15T11:17:03;99235.47;;;-0.29;100.00
69842;BME280;57138;51.326;-0.068;2024-01-15T11:19:46;99244.13;;;-0.19;100.00
69842;BME280;57138;51.326;-0.068;2024-01-15T11:24:57;99246.47;;;-0.06;100.00
69842;BME280;57138;51.326;-0.068;2024-01-15T11:27:47;99227.13;;;-0.15;100.00
69842;BME280;57138;51.326;-0.068;2024-01-15T11:30:13;99238.44;;;-0.05;100.00
69842;BME280;57138;51.326;-0.068;2024-01-15T11:32:40;99260.53;;;0.03;100.00
69842;BME280;57138;51.326;-0.068;2024-01-15T11:35:15;99247.94;;;-0.04;100.00
69842;BME280;57138;51.326;-0.068;2024-01-15T11:38:07;99262.72;;;0.07;98.63
69842;BME280;57138;51.326;-0.068;2024-01-15T11:42:58;99252.19;;;0.07;100.00
69842;BME280;57138;51.326;-0.068;2024-01-15T11:45:24;99256.63;;;0.07;98.36
69842;BME280;57138;51.326;-0.068;2024-01-15T11:50:48;99267.09;;;0.16;95.22
69842;BME280;57138;51.326;-0.068;2024-01-15T11:53:35;99272.22;;;0.18;90.67
69842;BME280;57138;51.326;-0.068;2024-01-15T11:56:03;99273.59;;;0.22;93.66
69842;BME280;57138;51.326;-0.068;2024-01-15T11:58:31;99267.34;;;0.23;97.23
69842;BME280;57138;51.326;-0.068;2024-01-15T12:00:57;99265.13;;;0.28;97.78
69842;BME280;57138;51.326;-0.068;2024-01-15T12:03:23;99273.41;;;0.33;99.66
69842;BME280;57138;51.326;-0.068;2024-01-15T12:05:49;99249.34;;;0.28;99.99
69842;BME280;57138;51.326;-0.068;2024-01-15T12:08:21;99248.47;;;0.38;100.00
69842;BME280;57138;51.326;-0.068;2024-01-15T12:10:47;99271.94;;;0.49;97.28
69842;BME280;57138;51.326;-0.068;2024-01-15T12:13:13;99264.41;;;0.54;99.42
69842;BME280;57138;51.326;-0.068;2024-01-15T12:15:41;99264.03;;;0.49;96.26
69842;BME280;57138;51.326;-0.068;2024-01-15T12:18:08;99268.41;;;0.58;96.81
69842;BME280;57138;51.326;-0.068;2024-01-15T12:20:34;99256.69;;;0.52;96.67
69842;BME280;57138;51.326;-0.068;2024-01-15T12:23:01;99277.06;;;0.68;97.61
69842;BME280;57138;51.326;-0.068;2024-01-15T12:25:26;99264.13;;;0.57;96.11
69842;BME280;57138;51.326;-0.068;2024-01-15T12:27:53;99276.91;;;0.70;94.65
69842;BME280;57138;51.326;-0.068;2024-01-15T12:30:20;99228.78;;;0.42;95.07
69842;BME280;57138;51.326;-0.068;2024-01-15T12:32:45;99231.66;;;0.48;96.68
69842;BME280;57138;51.326;-0.068;2024-01-15T12:35:13;99279.56;;;0.70;93.83
69842;BME280;57138;51.326;-0.068;2024-01-15T12:37:40;99245.13;;;0.63;96.68
69842;BME280;57138;51.326;-0.068;2024-01-15T12:40:07;99269.50;;;0.83;95.94
69842;BME280;57138;51.326;-0.068;2024-01-15T12:42:35;99275.59;;;0.84;100.00
69842;BME280;57138;51.326;-0.068;2024-01-15T12:45:01;99274.47;;;0.86;98.04
69842;BME280;57138;51.326;-0.068;2024-01-15T12:47:28;99244.00;;;0.66;98.88
69842;BME280;57138;51.326;-0.068;2024-01-15T12:49:54;99275.53;;;0.94;100.00
69842;BME280;57138;51.326;-0.068;2024-01-15T12:52:20;99261.25;;;0.78;94.30